createdAt,value
2023-03-05T00:01:11.408Z,0.26
2023-03-05T00:03:38.656Z,0.22
2023-03-05T00:06:05.673Z,0.20
2023-03-05T00:08:32.497Z,0.11
2023-03-05T00:11:04.384Z,0.06
2023-03-05T00:13:31.073Z,0.05
2023-03-05T00:15:57.636Z,-0.02
2023-03-05T00:18:24.601Z,-0.10
2023-03-05T00:20:51.246Z,-0.11
2023-03-05T00:23:17.801Z,-0.13
2023-03-05T00:25:45.929Z,-0.15
2023-03-05T00:28:13.089Z,-0.17
2023-03-05T00:30:40.164Z,-0.25
2023-03-05T00:33:07.259Z,-0.31
2023-03-05T00:35:43.321Z,-0.34
2023-03-05T00:38:11.205Z,-0.32
2023-03-05T00:40:39.406Z,-0.33
2023-03-05T00:43:06.409Z,-0.35
2023-03-05T00:45:33.823Z,-0.35
2023-03-05T00:48:00.492Z,-0.37
2023-03-05T00:50:27.764Z,-0.44
2023-03-05T00:52:54.736Z,-0.47
2023-03-05T00:55:21.913Z,-0.47
2023-03-05T00:57:48.568Z,-0.53
2023-03-05T01:00:16.174Z,-0.55
2023-03-05T01:02:42.741Z,-0.59
2023-03-05T01:05:13.984Z,-0.65
2023-03-05T01:07:40.872Z,-0.59
2023-03-05T01:10:08.653Z,-0.56
2023-03-05T01:12:35.445Z,-0.59
2023-03-05T01:15:02.470Z,-0.64
2023-03-05T01:17:29.129Z,-0.66
2023-03-05T01:19:55.672Z,-0.67
2023-03-05T01:22:22.092Z,-0.64
2023-03-05T01:24:48.646Z,-0.65
2023-03-05T01:27:15.085Z,-0.67
2023-03-05T01:29:41.809Z,-0.68
2023-03-05T01:32:08.274Z,-0.67
2023-03-05T01:34:37.260Z,-0.61
2023-03-05T01:37:04.084Z,-0.61
2023-03-05T01:39:30.608Z,-0.58
2023-03-05T01:41:57.054Z,-0.69
2023-03-05T01:44:29.093Z,-0.74
2023-03-05T01:46:56.184Z,-0.75
2023-03-05T01:49:27.901Z,-0.78
2023-03-05T01:52:03.145Z,-0.87
2023-03-05T01:54:35.221Z,-0.82
2023-03-05T01:57:08.462Z,-0.81
2023-03-05T01:59:37.870Z,-0.77
2023-03-05T02:02:07.948Z,-0.86
2023-03-05T02:04:41.367Z,-0.82
2023-03-05T02:07:08.600Z,-0.90
2023-03-05T02:09:38.812Z,-0.97
2023-03-05T02:12:05.970Z,-0.92
2023-03-05T02:14:33.676Z,-0.91
2023-03-05T02:17:00.272Z,-0.88
2023-03-05T02:19:27.051Z,-0.91
2023-03-05T02:21:54.211Z,-0.91
2023-03-05T02:24:37.206Z,-0.89
2023-03-05T02:27:05.857Z,-0.92
2023-03-05T02:29:33.995Z,-0.84
2023-03-05T02:32:01.469Z,-0.83
2023-03-05T02:34:27.996Z,-0.84
2023-03-05T02:36:55.525Z,-0.88
2023-03-05T02:39:23.428Z,-0.80
2023-03-05T02:41:49.851Z,-0.71
2023-03-05T02:44:16.294Z,-0.65
2023-03-05T02:46:42.758Z,-0.66
2023-03-05T02:49:09.237Z,-0.69
2023-03-05T02:51:35.894Z,-0.69
2023-03-05T02:54:02.386Z,-0.64
2023-03-05T02:56:29.755Z,-0.59
2023-03-05T02:58:56.164Z,-0.56
2023-03-05T03:01:22.717Z,-0.64
2023-03-05T03:03:49.222Z,-0.62
2023-03-05T03:06:15.622Z,-0.59
2023-03-05T03:08:42.032Z,-0.73
2023-03-05T03:11:12.435Z,-0.68
2023-03-05T03:13:39.237Z,-0.61
2023-03-05T03:16:12.320Z,-0.60
2023-03-05T03:18:39.163Z,-0.57
2023-03-05T03:21:06.930Z,-0.54
2023-03-05T03:23:34.386Z,-0.59
2023-03-05T03:26:00.820Z,-0.63
2023-03-05T03:28:27.219Z,-0.68
2023-03-05T03:30:53.624Z,-0.64
2023-03-05T03:33:20.048Z,-0.64
2023-03-05T03:35:46.625Z,-0.61
2023-03-05T03:38:13.863Z,-0.55
2023-03-05T03:40:41.766Z,-0.50
2023-03-05T03:43:08.242Z,-0.53
2023-03-05T03:45:34.747Z,-0.54
2023-03-05T03:48:01.182Z,-0.50
2023-03-05T03:50:27.636Z,-0.48
2023-03-05T03:52:54.255Z,-0.47
2023-03-05T03:55:20.653Z,-0.46
2023-03-05T03:57:47.325Z,-0.47
2023-03-05T04:00:14.151Z,-0.41
2023-03-05T04:02:41.501Z,-0.46
2023-03-05T04:05:08.721Z,-0.47
2023-03-05T04:07:35.169Z,-0.52
2023-03-05T04:10:04.094Z,-0.55
2023-03-05T04:12:31.031Z,-0.50
2023-03-05T04:14:57.441Z,-0.50
2023-03-05T04:17:23.880Z,-0.50
2023-03-05T04:19:50.269Z,-0.46
2023-03-05T04:22:18.225Z,-0.39
2023-03-05T04:24:44.714Z,-0.32
2023-03-05T04:27:12.946Z,-0.29
2023-03-05T04:29:39.669Z,-0.29
2023-03-05T04:32:06.523Z,-0.27
2023-03-05T04:34:33.409Z,-0.27
2023-03-05T04:36:59.842Z,-0.27
2023-03-05T04:39:26.314Z,-0.29
2023-03-05T04:41:52.702Z,-0.29
2023-03-05T04:44:19.267Z,-0.29
2023-03-05T04:46:46.079Z,-0.26
2023-03-05T04:49:12.648Z,-0.24
2023-03-05T04:51:39.064Z,-0.20
2023-03-05T04:54:05.499Z,-0.21
2023-03-05T04:56:31.906Z,-0.22
2023-03-05T04:58:58.760Z,-0.20
2023-03-05T05:01:25.337Z,-0.16
2023-03-05T05:03:52.137Z,-0.11
2023-03-05T05:06:18.545Z,-0.11
2023-03-05T05:08:44.958Z,-0.12
2023-03-05T05:11:14.183Z,-0.09
2023-03-05T05:13:40.590Z,-0.09
2023-03-05T05:16:08.563Z,-0.09
2023-03-05T05:18:35.560Z,-0.07
2023-03-05T05:21:02.013Z,-0.03
2023-03-05T05:23:28.578Z,-0.03
2023-03-05T05:26:00.169Z,-0.07
2023-03-05T05:28:27.665Z,-0.01
2023-03-05T05:30:54.826Z,-0.03
2023-03-05T05:33:21.721Z,0.01
2023-03-05T05:35:48.358Z,0.04
2023-03-05T05:38:14.975Z,0.05
2023-03-05T05:40:41.532Z,0.06
2023-03-05T05:43:08.152Z,0.09
2023-03-05T05:45:37.225Z,0.05
2023-03-05T05:48:03.770Z,0.07
2023-03-05T05:50:30.253Z,-0.03
2023-03-05T05:52:56.704Z,-0.02
2023-03-05T05:55:23.090Z,0.03
2023-03-05T05:57:49.546Z,0.09
2023-03-05T06:00:16.464Z,0.13
2023-03-05T06:02:43.424Z,0.14
2023-03-05T06:05:12.824Z,0.12
2023-03-05T06:07:39.231Z,0.10
2023-03-05T06:10:06.350Z,0.12
2023-03-05T06:12:32.783Z,0.11
2023-03-05T06:14:59.320Z,0.15
2023-03-05T06:17:30.606Z,0.13
2023-03-05T06:19:58.205Z,0.16
2023-03-05T06:22:24.803Z,0.15
2023-03-05T06:24:51.225Z,0.16
2023-03-05T06:27:17.649Z,0.19
2023-03-05T06:29:44.061Z,0.19
2023-03-05T06:32:10.884Z,0.13
2023-03-05T06:34:37.319Z,0.24
2023-03-05T06:37:03.910Z,0.26
2023-03-05T06:39:31.496Z,0.28
2023-03-05T06:41:58.111Z,0.31
2023-03-05T06:44:25.566Z,0.34
2023-03-05T06:46:52.131Z,0.37
2023-03-05T06:49:18.541Z,0.42
2023-03-05T06:51:44.953Z,0.43
2023-03-05T06:54:14.040Z,0.44
2023-03-05T06:56:43.403Z,0.43
2023-03-05T06:59:11.755Z,0.46
2023-03-05T07:01:38.371Z,0.51
2023-03-05T07:04:05.877Z,0.57
2023-03-05T07:06:34.638Z,0.60
2023-03-05T07:09:02.118Z,0.61
2023-03-05T07:11:29.274Z,0.67
2023-03-05T07:13:55.724Z,0.68
2023-03-05T07:16:27.628Z,0.73
2023-03-05T07:18:54.546Z,0.70
2023-03-05T07:21:22.963Z,0.77
2023-03-05T07:23:49.938Z,0.80
2023-03-05T07:26:16.753Z,0.81
2023-03-05T07:28:43.623Z,0.83
2023-03-05T07:31:21.668Z,0.92
2023-03-05T07:33:49.917Z,0.93
2023-03-05T07:36:16.720Z,0.93
2023-03-05T07:38:43.215Z,1.01
2023-03-05T07:41:12.468Z,1.06
2023-03-05T07:43:39.859Z,1.06
2023-03-05T07:46:08.598Z,1.03
2023-03-05T07:48:35.606Z,1.11
2023-03-05T07:51:07.905Z,1.07
2023-03-05T07:53:34.343Z,1.04
2023-03-05T07:56:00.818Z,1.06
2023-03-05T07:58:27.268Z,1.12
2023-03-05T08:00:53.688Z,1.21
2023-03-05T08:03:20.159Z,1.28
2023-03-05T08:05:47.043Z,1.27
2023-03-05T08:08:13.477Z,1.36
2023-03-05T08:10:39.984Z,1.37
2023-03-05T08:13:06.385Z,1.35
2023-03-05T08:15:32.846Z,1.44
2023-03-05T08:17:59.782Z,1.49
2023-03-05T08:20:26.640Z,1.53
2023-03-05T08:22:53.046Z,1.57
2023-03-05T08:25:19.517Z,1.59
2023-03-05T08:27:47.099Z,1.62
2023-03-05T08:30:21.602Z,1.65
2023-03-05T08:32:51.947Z,1.70
2023-03-05T08:35:18.462Z,1.75
2023-03-05T08:37:44.889Z,1.82
2023-03-05T08:40:11.948Z,1.87
2023-03-05T08:42:38.352Z,1.90
2023-03-05T08:45:05.120Z,1.98
2023-03-05T08:47:31.505Z,2.04
2023-03-05T08:49:58.421Z,2.15
2023-03-05T08:52:25.097Z,2.14
2023-03-05T08:54:51.570Z,2.22
2023-03-05T08:57:18.136Z,2.36
2023-03-05T08:59:44.558Z,2.27
2023-03-05T09:02:13.221Z,2.38
2023-03-05T09:04:40.259Z,2.45
2023-03-05T09:07:07.141Z,2.50
2023-03-05T09:09:33.997Z,2.60
2023-03-05T09:12:01.626Z,2.73
2023-03-05T09:14:28.747Z,2.82
2023-03-05T09:16:56.358Z,2.92
2023-03-05T09:19:23.088Z,2.98
2023-03-05T09:21:50.045Z,3.01
2023-03-05T09:24:16.502Z,3.07
2023-03-05T09:26:42.970Z,3.10
2023-03-05T09:29:09.778Z,3.14
2023-03-05T09:31:36.896Z,3.09
2023-03-05T09:34:04.891Z,3.22
2023-03-05T09:36:32.595Z,3.18
2023-03-05T09:38:59.279Z,3.23
2023-03-05T09:41:50.383Z,3.28
2023-03-05T09:44:43.308Z,3.25
2023-03-05T09:47:43.448Z,3.27
2023-03-05T09:50:22.072Z,3.33
2023-03-05T09:52:55.405Z,3.28
2023-03-05T09:55:40.882Z,3.39
2023-03-05T09:58:22.752Z,3.43
2023-03-05T10:00:53.271Z,3.50
2023-03-05T10:03:28.149Z,3.51
2023-03-05T10:06:07.011Z,3.60
2023-03-05T10:08:46.748Z,3.67
2023-03-05T10:11:29.464Z,3.69
2023-03-05T10:13:55.892Z,3.77
2023-03-05T10:17:01.050Z,3.85
2023-03-05T10:19:49.392Z,3.89
2023-03-05T10:22:20.499Z,3.94
2023-03-05T10:25:20.357Z,4.04
2023-03-05T10:27:54.081Z,3.98
2023-03-05T10:30:33.482Z,3.79
2023-03-05T10:33:21.555Z,3.89
2023-03-05T10:36:22.438Z,3.93
2023-03-05T10:39:08.786Z,3.98
2023-03-05T10:41:56.224Z,4.08
2023-03-05T10:44:37.740Z,3.96
2023-03-05T10:47:16.443Z,3.98
2023-03-05T10:49:50.928Z,4.00
2023-03-05T10:52:39.601Z,3.90
2023-03-05T10:55:17.607Z,4.01
2023-03-05T10:57:44.751Z,4.06
2023-03-05T11:00:17.715Z,4.16
2023-03-05T11:02:58.222Z,4.15
2023-03-05T11:05:42.653Z,4.12
2023-03-05T11:08:30.547Z,3.97
2023-03-05T11:11:11.968Z,3.98
2023-03-05T11:13:52.351Z,3.96
2023-03-05T11:16:26.499Z,3.95
2023-03-05T11:19:14.745Z,4.04
2023-03-05T11:21:43.090Z,3.98
2023-03-05T11:24:18.714Z,3.78
2023-03-05T11:26:57.237Z,3.62
2023-03-05T11:29:26.969Z,3.73
2023-03-05T11:31:53.966Z,3.67
2023-03-05T11:34:20.327Z,3.79
2023-03-05T11:36:56.276Z,3.85
2023-03-05T11:39:25.218Z,3.59
2023-03-05T11:42:09.501Z,3.84
2023-03-05T11:44:45.174Z,3.96
2023-03-05T11:47:37.322Z,3.98
2023-03-05T11:50:15.778Z,4.18
2023-03-05T11:52:47.955Z,4.22
2023-03-05T11:55:19.795Z,4.23
2023-03-05T11:57:58.204Z,4.19
2023-03-05T12:00:29.041Z,4.23
2023-03-05T12:02:58.421Z,4.36
2023-03-05T12:05:25.215Z,4.36
2023-03-05T12:07:55.273Z,4.44
2023-03-05T12:10:24.671Z,4.53
2023-03-05T12:13:20.153Z,4.60
2023-03-05T12:15:54.708Z,4.51
2023-03-05T12:18:33.710Z,4.32
2023-03-05T12:21:06.497Z,4.45
2023-03-05T12:23:52.694Z,4.14
2023-03-05T12:26:59.287Z,4.15
2023-03-05T12:29:39.012Z,4.26
2023-03-05T12:32:33.946Z,3.95
2023-03-05T12:35:22.772Z,4.04
2023-03-05T12:37:49.130Z,4.19
2023-03-05T12:40:15.536Z,4.27
2023-03-05T12:42:41.878Z,4.21
2023-03-05T12:45:17.300Z,4.12
2023-03-05T12:47:56.513Z,4.04
2023-03-05T12:50:29.015Z,4.03
2023-03-05T12:53:04.385Z,4.00
2023-03-05T12:55:39.855Z,3.95
2023-03-05T12:58:14.980Z,4.09
2023-03-05T13:00:52.336Z,4.19
2023-03-05T13:03:30.603Z,4.17
2023-03-05T13:06:00.405Z,4.19
2023-03-05T13:08:38.053Z,4.03
2023-03-05T13:11:21.243Z,3.78
2023-03-05T13:13:48.545Z,3.90
2023-03-05T13:16:19.852Z,3.77
2023-03-05T13:18:48.626Z,3.82
2023-03-05T13:21:20.409Z,3.83
2023-03-05T13:23:58.372Z,3.88
2023-03-05T13:26:29.989Z,4.00
2023-03-05T13:29:22.229Z,3.97
2023-03-05T13:31:54.670Z,3.99
2023-03-05T13:34:26.603Z,4.06
2023-03-05T13:37:00.781Z,4.21
2023-03-05T13:39:34.189Z,4.38
2023-03-05T13:42:03.999Z,4.44
2023-03-05T13:44:31.819Z,4.54
2023-03-05T13:47:17.123Z,4.70
2023-03-05T13:49:44.262Z,4.85
2023-03-05T13:52:11.632Z,4.68
2023-03-05T13:54:38.329Z,4.66
2023-03-05T13:57:08.352Z,4.71
2023-03-05T13:59:38.906Z,4.66
2023-03-05T14:02:18.238Z,4.64
2023-03-05T14:04:46.270Z,4.58
2023-03-05T14:07:33.375Z,4.41
2023-03-05T14:10:00.717Z,4.56
2023-03-05T14:12:38.338Z,4.50
2023-03-05T14:15:21.339Z,4.39
2023-03-05T14:17:48.173Z,4.42
2023-03-05T14:20:23.248Z,3.97
2023-03-05T14:22:53.360Z,3.91
2023-03-05T14:25:34.033Z,3.75
2023-03-05T14:28:06.458Z,3.56
2023-03-05T14:30:35.949Z,3.46
2023-03-05T14:33:03.655Z,3.33
2023-03-05T14:35:30.622Z,3.37
2023-03-05T14:37:59.697Z,3.32
2023-03-05T14:40:35.214Z,3.28
2023-03-05T14:43:06.503Z,3.40
2023-03-05T14:45:36.618Z,3.47
2023-03-05T14:48:05.094Z,3.63
2023-03-05T14:50:37.592Z,3.59
2023-03-05T14:53:09.408Z,3.27
2023-03-05T14:55:38.162Z,3.19
2023-03-05T14:58:12.215Z,3.03
2023-03-05T15:00:38.639Z,2.99
2023-03-05T15:03:05.306Z,2.96
2023-03-05T15:05:32.285Z,2.75
2023-03-05T15:07:59.222Z,2.91
2023-03-05T15:10:26.194Z,3.10
2023-03-05T15:12:53.410Z,3.18
2023-03-05T15:15:20.914Z,3.13
2023-03-05T15:17:51.531Z,3.24
2023-03-05T15:20:21.453Z,3.17
2023-03-05T15:22:48.039Z,3.12
2023-03-05T15:25:14.771Z,3.02
2023-03-05T15:27:41.282Z,3.00
2023-03-05T15:30:09.527Z,3.00
2023-03-05T15:32:36.013Z,2.93
2023-03-05T15:35:02.478Z,2.93
2023-03-05T15:37:28.930Z,2.81
2023-03-05T15:39:55.362Z,2.83
2023-03-05T15:42:21.763Z,2.87
2023-03-05T15:44:48.233Z,2.83
2023-03-05T15:47:14.731Z,2.86
2023-03-05T15:49:41.172Z,2.78
2023-03-05T15:52:07.600Z,2.82
2023-03-05T15:54:35.615Z,2.79
2023-03-05T15:57:02.009Z,2.79
2023-03-05T15:59:28.410Z,2.82
2023-03-05T16:01:54.895Z,2.83
2023-03-05T16:04:21.369Z,2.83
2023-03-05T16:06:49.409Z,2.84
2023-03-05T16:09:17.704Z,2.84
2023-03-05T16:11:47.853Z,2.88
2023-03-05T16:14:17.400Z,2.78
2023-03-05T16:16:44.013Z,2.77
2023-03-05T16:19:15.859Z,2.77
2023-03-05T16:21:42.506Z,2.71
2023-03-05T16:24:09.015Z,2.66
2023-03-05T16:26:39.824Z,2.63
2023-03-05T16:29:06.626Z,2.46
2023-03-05T16:31:35.373Z,2.48
2023-03-05T16:34:02.073Z,2.35
2023-03-05T16:36:30.888Z,2.39
2023-03-05T16:38:59.242Z,2.37
2023-03-05T16:41:26.607Z,2.40
2023-03-05T16:43:56.239Z,2.37
2023-03-05T16:46:27.945Z,2.30
2023-03-05T16:48:54.572Z,2.25
2023-03-05T16:51:21.846Z,2.17
2023-03-05T16:53:48.337Z,2.18
2023-03-05T16:56:15.001Z,2.20
2023-03-05T16:58:41.455Z,2.16
2023-03-05T17:01:13.979Z,2.14
2023-03-05T17:03:41.555Z,2.15
2023-03-05T17:06:13.450Z,2.14
2023-03-05T17:08:41.432Z,2.18
2023-03-05T17:11:08.040Z,2.25
2023-03-05T17:13:34.782Z,2.32
2023-03-05T17:16:01.839Z,2.32
2023-03-05T17:18:28.344Z,2.21
2023-03-05T17:20:54.884Z,2.13
2023-03-05T17:23:21.334Z,2.10
2023-03-05T17:25:47.824Z,2.09
2023-03-05T17:28:14.703Z,2.11
2023-03-05T17:30:41.254Z,2.07
2023-03-05T17:33:07.882Z,2.02
2023-03-05T17:35:35.300Z,2.01
2023-03-05T17:38:07.681Z,1.96
2023-03-05T17:40:34.333Z,1.96
2023-03-05T17:43:00.850Z,1.97
2023-03-05T17:45:27.374Z,1.97
2023-03-05T17:47:53.988Z,2.01
2023-03-05T17:50:20.700Z,1.90
2023-03-05T17:52:47.561Z,1.81
2023-03-05T17:55:15.757Z,1.73
2023-03-05T17:57:44.267Z,1.66
2023-03-05T18:00:17.745Z,1.68
2023-03-05T18:02:44.645Z,1.67
2023-03-05T18:05:12.198Z,1.69
2023-03-05T18:07:38.905Z,1.78
2023-03-05T18:10:07.488Z,1.76
2023-03-05T18:12:34.069Z,1.77
2023-03-05T18:15:00.457Z,1.79
2023-03-05T18:17:26.860Z,1.79
2023-03-05T18:19:53.572Z,1.79
2023-03-05T18:22:19.998Z,1.73
2023-03-05T18:24:46.423Z,1.78
2023-03-05T18:27:13.046Z,1.76
2023-03-05T18:29:39.547Z,1.76
2023-03-05T18:32:06.090Z,1.78
2023-03-05T18:34:32.506Z,1.80
2023-03-05T18:37:00.681Z,1.83
2023-03-05T18:39:33.266Z,1.86
2023-03-05T18:42:00.164Z,1.84
2023-03-05T18:44:26.862Z,1.76
2023-03-05T18:46:53.866Z,1.79
2023-03-05T18:49:20.485Z,1.85
2023-03-05T18:51:47.012Z,1.88
2023-03-05T18:54:13.408Z,1.82
2023-03-05T18:56:39.862Z,1.83
2023-03-05T18:59:06.320Z,1.81
2023-03-05T19:01:32.898Z,1.79
2023-03-05T19:03:59.376Z,1.79
2023-03-05T19:06:26.043Z,1.81
2023-03-05T19:08:57.231Z,1.79
2023-03-05T19:11:23.771Z,1.79
2023-03-05T19:13:51.591Z,1.80
2023-03-05T19:16:29.197Z,1.78
2023-03-05T19:19:05.135Z,1.72
2023-03-05T19:21:32.162Z,1.71
2023-03-05T19:23:58.608Z,1.71
2023-03-05T19:26:25.044Z,1.66
2023-03-05T19:28:51.476Z,1.63
2023-03-05T19:31:17.985Z,1.63
2023-03-05T19:33:44.398Z,1.68
2023-03-05T19:36:12.650Z,1.65
2023-03-05T19:38:40.055Z,1.56
2023-03-05T19:41:10.520Z,1.60
2023-03-05T19:43:37.635Z,1.64
2023-03-05T19:46:07.150Z,1.64
2023-03-05T19:48:34.905Z,1.64
2023-03-05T19:51:03.061Z,1.63
2023-03-05T19:53:29.790Z,1.55
2023-03-05T19:55:56.651Z,1.58
2023-03-05T19:58:23.045Z,1.57
2023-03-05T20:00:49.483Z,1.59
2023-03-05T20:03:15.898Z,1.59
2023-03-05T20:05:43.715Z,1.43
2023-03-05T20:08:10.321Z,1.41
2023-03-05T20:10:36.776Z,1.39
2023-03-05T20:13:03.193Z,1.40
2023-03-05T20:15:29.764Z,1.41
2023-03-05T20:17:57.574Z,1.39
2023-03-05T20:20:24.741Z,1.28
2023-03-05T20:22:51.178Z,1.31
2023-03-05T20:25:21.086Z,1.37
2023-03-05T20:27:47.497Z,1.40
2023-03-05T20:30:15.505Z,1.41
2023-03-05T20:32:42.088Z,1.41
2023-03-05T20:35:13.783Z,1.44
2023-03-05T20:37:49.113Z,1.48
2023-03-05T20:40:16.673Z,1.47
2023-03-05T20:42:43.365Z,1.48
2023-03-05T20:45:10.222Z,1.50
2023-03-05T20:47:45.847Z,1.42
2023-03-05T20:50:14.366Z,1.40
2023-03-05T20:52:41.085Z,1.40
2023-03-05T20:55:08.370Z,1.35
2023-03-05T20:57:34.834Z,1.36
2023-03-05T21:00:03.355Z,1.36
2023-03-05T21:02:30.405Z,1.30
2023-03-05T21:04:56.854Z,1.25
2023-03-05T21:07:23.282Z,1.29
2023-03-05T21:09:49.702Z,1.30
2023-03-05T21:12:16.193Z,1.26
2023-03-05T21:14:42.594Z,1.32
2023-03-05T21:17:09.391Z,1.30
2023-03-05T21:19:38.223Z,1.33
2023-03-05T21:22:04.820Z,1.32
2023-03-05T21:24:42.473Z,1.28
2023-03-05T21:27:09.060Z,1.28
2023-03-05T21:29:35.451Z,1.35
2023-03-05T21:32:02.422Z,1.33
2023-03-05T21:34:28.924Z,1.28
2023-03-05T21:36:55.325Z,1.31
2023-03-05T21:39:21.711Z,1.25
2023-03-05T21:41:48.269Z,1.28
2023-03-05T21:44:17.520Z,1.31
2023-03-05T21:46:43.947Z,1.30
2023-03-05T21:49:10.387Z,1.34
2023-03-05T21:51:48.785Z,1.35
2023-03-05T21:54:15.222Z,1.33
2023-03-05T21:56:41.630Z,1.33
2023-03-05T21:59:08.014Z,1.37
2023-03-05T22:01:34.561Z,1.38
2023-03-05T22:04:01.005Z,1.41
2023-03-05T22:06:27.514Z,1.41
2023-03-05T22:08:53.906Z,1.41
2023-03-05T22:11:21.075Z,1.40
2023-03-05T22:13:47.741Z,1.38
2023-03-05T22:16:25.675Z,1.34
2023-03-05T22:18:53.207Z,1.37
2023-03-05T22:21:27.656Z,1.38
2023-03-05T22:23:56.994Z,1.37
2023-03-05T22:26:25.232Z,1.37
2023-03-05T22:28:51.779Z,1.36
2023-03-05T22:31:26.549Z,1.41
2023-03-05T22:33:53.672Z,1.36
2023-03-05T22:36:20.626Z,1.38
2023-03-05T22:38:47.147Z,1.35
2023-03-05T22:41:16.604Z,1.34
2023-03-05T22:43:43.020Z,1.35
2023-03-05T22:46:10.473Z,1.29
2023-03-05T22:48:36.974Z,1.28
2023-03-05T22:51:03.391Z,1.28
2023-03-05T22:53:30.221Z,1.31
2023-03-05T22:55:56.652Z,1.32
2023-03-05T22:58:23.206Z,1.31
2023-03-05T23:00:49.628Z,1.31
2023-03-05T23:03:16.245Z,1.31
2023-03-05T23:05:42.698Z,1.30
2023-03-05T23:08:09.224Z,1.24
2023-03-05T23:10:35.812Z,1.21
2023-03-05T23:13:02.536Z,1.15
2023-03-05T23:15:32.058Z,1.14
2023-03-05T23:17:59.062Z,1.17
2023-03-05T23:20:29.181Z,1.17
2023-03-05T23:22:56.139Z,1.17
2023-03-05T23:25:24.967Z,1.18
2023-03-05T23:27:51.583Z,1.13
2023-03-05T23:30:26.629Z,1.10
2023-03-05T23:32:54.378Z,1.09
2023-03-05T23:35:25.062Z,1.09
2023-03-05T23:37:52.870Z,1.07
2023-03-05T23:40:25.158Z,1.07
2023-03-05T23:42:52.491Z,1.06
2023-03-05T23:45:21.088Z,1.04
2023-03-05T23:47:48.738Z,1.04
2023-03-05T23:50:20.953Z,1.08
2023-03-05T23:52:48.914Z,1.10
2023-03-05T23:55:19.378Z,1.10
2023-03-05T23:57:46.957Z,1.11
